createdAt,value
2022-11-03T00:01:38.440Z,15.50
2022-11-03T00:04:08.636Z,15.50
2022-11-03T00:06:39.109Z,15.50
2022-11-03T00:09:11.025Z,15.50
2022-11-03T00:11:41.797Z,15.50
2022-11-03T00:14:11.237Z,15.50
2022-11-03T00:16:40.593Z,15.50
2022-11-03T00:19:10.365Z,15.50
2022-11-03T00:21:40.011Z,15.50
2022-11-03T00:24:08.891Z,15.50
2022-11-03T00:26:37.989Z,15.50
2022-11-03T00:29:10.411Z,15.50
2022-11-03T00:31:41.066Z,15.50
2022-11-03T00:34:09.977Z,15.50
2022-11-03T00:36:42.497Z,15.50
2022-11-03T00:39:11.499Z,15.50
2022-11-03T00:41:40.407Z,15.50
2022-11-03T00:44:10.370Z,15.50
2022-11-03T00:46:38.708Z,15.50
2022-11-03T00:49:07.447Z,15.50
2022-11-03T00:51:36.108Z,15.50
2022-11-03T00:54:07.115Z,15.40
2022-11-03T00:56:38.046Z,15.50
2022-11-03T00:59:08.309Z,15.50
2022-11-03T01:01:45.332Z,15.40
2022-11-03T01:04:32.700Z,15.40
2022-11-03T01:07:02.051Z,15.40
2022-11-03T01:09:36.153Z,15.40
2022-11-03T01:12:08.066Z,15.30
2022-11-03T01:14:39.872Z,15.40
2022-11-03T01:17:11.061Z,15.40
2022-11-03T01:19:39.397Z,15.40
2022-11-03T01:22:10.877Z,15.40
2022-11-03T01:24:41.826Z,15.40
2022-11-03T01:27:10.971Z,15.40
2022-11-03T01:29:38.993Z,15.40
2022-11-03T01:32:08.285Z,15.40
2022-11-03T01:34:36.718Z,15.40
2022-11-03T01:37:05.388Z,15.40
2022-11-03T01:39:33.567Z,15.30
2022-11-03T01:42:03.225Z,15.40
2022-11-03T01:44:37.282Z,15.40
2022-11-03T01:47:21.889Z,15.40
2022-11-03T01:49:56.629Z,15.40
2022-11-03T01:52:31.049Z,15.40
2022-11-03T01:55:05.084Z,15.40
2022-11-03T01:57:42.237Z,15.40
2022-11-03T02:00:12.000Z,15.40
2022-11-03T02:02:44.276Z,15.40
2022-11-03T02:05:16.134Z,15.40
2022-11-03T02:07:52.134Z,15.40
2022-11-03T02:10:21.305Z,15.30
2022-11-03T02:12:50.717Z,15.40
2022-11-03T02:15:22.521Z,15.40
2022-11-03T02:17:53.825Z,15.40
2022-11-03T02:20:25.837Z,15.40
2022-11-03T02:23:12.055Z,15.40
2022-11-03T02:25:47.334Z,15.20
2022-11-03T02:28:19.832Z,15.30
2022-11-03T02:31:00.705Z,15.30
2022-11-03T02:33:50.104Z,15.30
2022-11-03T02:36:25.973Z,15.30
2022-11-03T02:39:01.226Z,15.30
2022-11-03T02:41:35.185Z,15.30
2022-11-03T02:44:06.322Z,15.30
2022-11-03T02:46:37.353Z,15.30
2022-11-03T02:49:05.369Z,15.30
2022-11-03T02:51:34.737Z,15.30
2022-11-03T02:54:10.136Z,15.30
2022-11-03T02:56:50.563Z,15.30
2022-11-03T02:59:25.552Z,15.30
2022-11-03T03:02:03.121Z,15.30
2022-11-03T03:04:38.033Z,15.30
2022-11-03T03:07:11.987Z,15.30
2022-11-03T03:09:47.009Z,15.30
2022-11-03T03:12:21.295Z,15.30
2022-11-03T03:14:52.217Z,15.30
2022-11-03T03:17:27.714Z,15.30
2022-11-03T03:20:04.592Z,15.30
2022-11-03T03:22:39.061Z,15.30
2022-11-03T03:25:14.766Z,15.30
2022-11-03T03:27:49.873Z,15.30
2022-11-03T03:30:19.863Z,15.30
2022-11-03T03:32:50.878Z,15.30
2022-11-03T03:35:23.864Z,15.20
2022-11-03T03:37:57.140Z,15.30
2022-11-03T03:40:32.951Z,15.20
2022-11-03T03:43:04.529Z,15.30
2022-11-03T03:45:35.264Z,15.30
2022-11-03T03:48:06.201Z,15.30
2022-11-03T03:50:39.478Z,15.20
2022-11-03T03:53:12.969Z,15.20
2022-11-03T03:55:45.606Z,15.20
2022-11-03T03:58:16.806Z,15.20
2022-11-03T04:00:45.506Z,15.20
2022-11-03T04:03:18.532Z,15.20
2022-11-03T04:05:47.333Z,15.20
2022-11-03T04:08:17.111Z,15.20
2022-11-03T04:11:06.434Z,15.20
2022-11-03T04:14:08.278Z,15.20
2022-11-03T04:16:53.760Z,15.20
2022-11-03T04:19:39.517Z,15.20
2022-11-03T04:22:17.505Z,15.20
2022-11-03T04:24:47.830Z,15.20
2022-11-03T04:27:35.037Z,15.10
2022-11-03T04:30:16.440Z,15.10
2022-11-03T04:32:45.909Z,15.10
2022-11-03T04:35:18.318Z,15.10
2022-11-03T04:37:52.435Z,15.10
2022-11-03T04:40:20.868Z,15.10
2022-11-03T04:42:49.210Z,15.10
2022-11-03T04:45:27.164Z,15.10
2022-11-03T04:47:56.081Z,15.10
2022-11-03T04:50:25.646Z,15.10
2022-11-03T04:52:58.496Z,15.10
2022-11-03T04:55:28.114Z,15.10
2022-11-03T04:58:01.163Z,15.10
2022-11-03T05:00:30.541Z,15.10
2022-11-03T05:02:58.626Z,15.10
2022-11-03T05:05:27.718Z,15.10
2022-11-03T05:07:59.322Z,15.10
2022-11-03T05:10:30.367Z,15.00
2022-11-03T05:13:01.491Z,15.00
2022-11-03T05:15:36.811Z,15.00
2022-11-03T05:18:20.546Z,15.00
2022-11-03T05:20:54.912Z,15.00
2022-11-03T05:23:23.996Z,15.00
2022-11-03T05:25:55.091Z,14.90
2022-11-03T05:28:28.741Z,14.90
2022-11-03T05:30:58.282Z,14.90
2022-11-03T05:33:33.775Z,14.90
2022-11-03T05:36:07.243Z,14.90
2022-11-03T05:38:35.886Z,14.90
2022-11-03T05:41:04.231Z,14.90
2022-11-03T05:43:32.256Z,14.90
2022-11-03T05:46:04.487Z,14.90
2022-11-03T05:48:38.376Z,14.90
2022-11-03T05:51:20.046Z,14.80
2022-11-03T05:53:52.141Z,14.90
2022-11-03T05:56:24.760Z,14.80
2022-11-03T05:58:56.603Z,14.80
2022-11-03T06:01:31.453Z,14.80
2022-11-03T06:04:02.106Z,14.80
2022-11-03T06:06:35.819Z,14.80
2022-11-03T06:09:13.836Z,14.60
2022-11-03T06:11:43.199Z,14.80
2022-11-03T06:14:21.219Z,14.70
2022-11-03T06:16:55.282Z,14.70
2022-11-03T06:19:28.837Z,14.70
2022-11-03T06:22:02.894Z,14.70
2022-11-03T06:24:34.939Z,14.70
2022-11-03T06:27:03.068Z,14.60
2022-11-03T06:29:34.377Z,14.60
2022-11-03T06:32:03.801Z,14.50
2022-11-03T06:34:46.241Z,14.60
2022-11-03T06:37:23.917Z,14.60
2022-11-03T06:39:58.872Z,14.60
2022-11-03T06:42:32.983Z,14.60
2022-11-03T06:45:10.725Z,14.60
2022-11-03T06:47:42.093Z,14.60
2022-11-03T06:50:25.529Z,14.50
2022-11-03T06:52:55.549Z,14.60
2022-11-03T06:55:28.003Z,14.50
2022-11-03T06:58:00.540Z,14.50
2022-11-03T07:00:36.208Z,14.50
2022-11-03T07:03:15.374Z,14.50
2022-11-03T07:05:45.052Z,14.50
2022-11-03T07:08:23.603Z,14.50
2022-11-03T07:10:58.178Z,14.50
2022-11-03T07:13:28.376Z,14.40
2022-11-03T07:15:56.551Z,14.50
2022-11-03T07:18:30.692Z,14.50
2022-11-03T07:21:00.004Z,14.50
2022-11-03T07:23:31.528Z,14.50
2022-11-03T07:26:02.287Z,14.50
2022-11-03T07:28:37.329Z,14.50
2022-11-03T07:31:16.965Z,14.40
2022-11-03T07:33:47.554Z,14.50
2022-11-03T07:36:21.737Z,14.50
2022-11-03T07:38:54.175Z,14.50
2022-11-03T07:41:29.686Z,14.40
2022-11-03T07:44:02.995Z,14.50
2022-11-03T07:46:31.580Z,14.50
2022-11-03T07:49:03.552Z,14.50
2022-11-03T07:51:34.745Z,14.50
2022-11-03T07:54:11.045Z,14.50
2022-11-03T07:56:43.878Z,14.60
2022-11-03T07:59:19.504Z,14.60
2022-11-03T08:01:50.857Z,14.60
2022-11-03T08:04:24.038Z,14.60
2022-11-03T08:06:52.638Z,14.70
2022-11-03T08:09:22.215Z,14.70
2022-11-03T08:11:50.992Z,14.70
2022-11-03T08:14:19.146Z,14.70
2022-11-03T08:16:47.373Z,14.70
2022-11-03T08:19:15.383Z,14.70
2022-11-03T08:21:44.794Z,14.80
2022-11-03T08:24:12.771Z,14.80
2022-11-03T08:26:40.797Z,14.80
2022-11-03T08:29:08.930Z,14.80
2022-11-03T08:31:36.947Z,14.90
2022-11-03T08:34:05.078Z,14.90
2022-11-03T08:36:33.137Z,14.90
2022-11-03T08:39:02.493Z,14.90
2022-11-03T08:41:30.728Z,14.90
2022-11-03T08:43:58.739Z,14.90
2022-11-03T08:46:26.769Z,14.90
2022-11-03T08:48:54.835Z,15.00
2022-11-03T08:51:22.897Z,15.00
2022-11-03T08:53:53.936Z,15.00
2022-11-03T08:56:23.873Z,14.90
2022-11-03T08:58:52.203Z,15.10
2022-11-03T09:01:20.333Z,15.10
2022-11-03T09:03:48.439Z,15.10
2022-11-03T09:06:16.622Z,15.10
2022-11-03T09:11:34.033Z,15.20
2022-11-03T09:14:02.025Z,15.20
2022-11-03T09:16:30.032Z,15.20
2022-11-03T09:18:58.056Z,15.20
2022-11-03T09:21:26.071Z,15.20
2022-11-03T09:23:54.102Z,15.30
2022-11-03T09:26:22.240Z,15.30
2022-11-03T09:28:51.794Z,15.30
2022-11-03T09:31:20.417Z,15.30
2022-11-03T09:33:48.479Z,15.40
2022-11-03T09:36:16.590Z,15.40
2022-11-03T09:38:44.672Z,15.40
2022-11-03T09:41:26.603Z,15.50
2022-11-03T09:44:04.948Z,15.50
2022-11-03T09:46:35.177Z,15.50
2022-11-03T09:49:05.959Z,15.50
2022-11-03T09:51:36.500Z,15.50
2022-11-03T09:54:06.813Z,15.60
2022-11-03T09:56:37.960Z,15.60
2022-11-03T09:59:16.619Z,15.60
2022-11-03T10:01:48.812Z,15.70
2022-11-03T10:04:19.765Z,15.60
2022-11-03T10:06:47.810Z,15.80
2022-11-03T10:09:20.563Z,15.70
2022-11-03T10:11:49.196Z,15.80
2022-11-03T10:14:20.253Z,15.80
2022-11-03T10:17:00.271Z,15.80
2022-11-03T10:19:28.588Z,15.90
2022-11-03T10:21:56.617Z,15.90
2022-11-03T10:24:26.024Z,16.00
2022-11-03T10:26:55.888Z,16.00
2022-11-03T10:29:27.148Z,16.00
2022-11-03T10:31:58.383Z,16.00
2022-11-03T10:34:34.729Z,16.10
2022-11-03T10:37:20.832Z,16.10
2022-11-03T10:39:49.957Z,16.10
2022-11-03T10:42:21.329Z,16.20
2022-11-03T10:44:54.310Z,16.10
2022-11-03T10:47:33.658Z,16.20
2022-11-03T10:50:22.395Z,16.20
2022-11-03T10:52:51.493Z,16.30
2022-11-03T10:55:24.850Z,16.30
2022-11-03T10:57:55.549Z,16.30
2022-11-03T11:00:26.056Z,16.30
2022-11-03T11:03:01.944Z,16.40
2022-11-03T11:05:30.145Z,16.40
2022-11-03T11:08:00.554Z,16.40
2022-11-03T11:10:31.376Z,16.50
2022-11-03T11:13:27.414Z,16.50
2022-11-03T11:15:59.018Z,16.50
2022-11-03T11:19:03.266Z,16.50
2022-11-03T11:22:14.943Z,16.50
2022-11-03T11:25:00.541Z,16.50
2022-11-03T11:27:58.729Z,16.60
2022-11-03T11:30:58.749Z,16.60
2022-11-03T11:33:29.399Z,16.60
2022-11-03T11:36:28.169Z,16.60
2022-11-03T11:39:00.736Z,16.70
2022-11-03T11:42:07.723Z,16.70
2022-11-03T11:44:57.595Z,16.70
2022-11-03T11:47:43.536Z,16.80
2022-11-03T11:50:32.317Z,16.80
2022-11-03T11:53:12.158Z,16.80
2022-11-03T11:55:46.557Z,16.90
2022-11-03T11:58:22.542Z,16.90
2022-11-03T12:00:57.733Z,16.90
2022-11-03T12:03:39.219Z,16.80
2022-11-03T12:06:08.169Z,17.00
2022-11-03T12:08:36.226Z,17.00
2022-11-03T12:11:07.787Z,17.00
2022-11-03T12:13:52.321Z,17.00
2022-11-03T12:16:35.538Z,17.10
2022-11-03T12:19:40.958Z,17.10
2022-11-03T12:22:11.734Z,17.10
2022-11-03T12:24:50.006Z,17.10
2022-11-03T12:27:44.225Z,17.20
2022-11-03T12:30:19.773Z,17.10
2022-11-03T12:32:48.717Z,17.20
2022-11-03T12:35:18.317Z,17.30
2022-11-03T12:37:46.711Z,17.30
2022-11-03T12:40:15.640Z,17.30
2022-11-03T12:42:43.774Z,17.40
2022-11-03T12:45:13.526Z,17.40
2022-11-03T12:47:41.771Z,17.40
2022-11-03T12:50:11.124Z,17.40
2022-11-03T12:52:40.448Z,17.50
2022-11-03T12:55:09.453Z,17.50
2022-11-03T12:57:37.472Z,17.50
2022-11-03T13:00:07.366Z,17.60
2022-11-03T13:02:35.837Z,17.60
2022-11-03T13:05:04.316Z,17.50
2022-11-03T13:07:35.028Z,17.70
2022-11-03T13:10:05.370Z,17.60
2022-11-03T13:12:33.884Z,17.60
2022-11-03T13:15:04.224Z,17.70
2022-11-03T13:17:52.032Z,17.70
2022-11-03T13:20:20.402Z,17.70
2022-11-03T13:22:48.389Z,17.80
2022-11-03T13:25:18.890Z,17.80
2022-11-03T13:27:46.976Z,17.80
2022-11-03T13:30:15.214Z,17.80
2022-11-03T13:32:43.361Z,17.80
2022-11-03T13:35:13.879Z,17.90
2022-11-03T13:37:42.203Z,17.90
2022-11-03T13:40:29.221Z,17.90
2022-11-03T13:43:01.821Z,17.90
2022-11-03T13:45:29.851Z,17.90
2022-11-03T13:48:48.485Z,17.90
2022-11-03T13:50:46.226Z,18.00
2022-11-03T13:56:06.848Z,18.00
2022-11-03T14:01:27.972Z,18.00
2022-11-03T14:06:44.308Z,18.00
2022-11-03T14:09:12.323Z,18.00
2022-11-03T14:11:58.090Z,18.10
2022-11-03T14:14:27.488Z,18.10
2022-11-03T14:16:55.576Z,18.10
2022-11-03T14:19:30.812Z,18.10
2022-11-03T14:22:03.877Z,18.10
2022-11-03T14:24:31.890Z,18.10
2022-11-03T14:27:00.341Z,18.10
2022-11-03T14:29:29.719Z,18.10
2022-11-03T14:31:57.758Z,18.20
2022-11-03T14:34:25.875Z,18.20
2022-11-03T14:36:54.184Z,18.20
2022-11-03T14:39:22.347Z,18.20
2022-11-03T14:42:04.730Z,18.20
2022-11-03T14:44:36.347Z,18.20
2022-11-03T14:47:07.057Z,18.20
2022-11-03T14:49:36.479Z,18.20
2022-11-03T14:52:07.247Z,18.20
2022-11-03T14:54:36.491Z,18.20
2022-11-03T14:57:05.123Z,18.20
2022-11-03T14:59:35.348Z,18.20
2022-11-03T15:02:04.708Z,18.20
2022-11-03T15:04:33.107Z,18.30
2022-11-03T15:07:01.474Z,18.30
2022-11-03T15:09:29.517Z,18.30
2022-11-03T15:11:57.538Z,18.30
2022-11-03T15:14:25.599Z,18.30
2022-11-03T15:16:54.948Z,18.20
2022-11-03T15:19:23.246Z,18.30
2022-11-03T15:21:51.306Z,18.30
2022-11-03T15:27:07.293Z,18.30
2022-11-03T15:29:35.913Z,18.30
2022-11-03T15:32:06.788Z,18.30
2022-11-03T15:34:34.846Z,18.30
2022-11-03T15:37:02.889Z,18.30
2022-11-03T15:39:31.164Z,18.30
2022-11-03T15:42:00.277Z,18.30
2022-11-03T15:44:28.485Z,18.30
2022-11-03T15:46:56.490Z,18.30
2022-11-03T15:49:25.971Z,18.20
2022-11-03T15:51:54.001Z,18.20
2022-11-03T15:54:21.992Z,18.20
2022-11-03T15:56:50.179Z,18.20
2022-11-03T15:59:18.989Z,18.20
2022-11-03T16:01:47.181Z,18.20
2022-11-03T16:04:16.177Z,18.10
2022-11-03T16:09:33.774Z,18.20
2022-11-03T16:12:02.829Z,18.20
2022-11-03T16:14:31.191Z,18.20
2022-11-03T16:16:59.564Z,18.20
2022-11-03T16:19:27.609Z,18.20
2022-11-03T16:21:56.973Z,18.20
2022-11-03T16:24:33.240Z,18.20
2022-11-03T16:27:03.573Z,18.20
2022-11-03T16:29:31.810Z,18.20
2022-11-03T16:31:59.893Z,18.20
2022-11-03T16:34:27.911Z,18.20
2022-11-03T16:36:57.335Z,18.20
2022-11-03T16:39:25.359Z,18.20
2022-11-03T16:41:54.754Z,18.10
2022-11-03T16:44:23.053Z,18.20
2022-11-03T16:46:51.101Z,18.20
2022-11-03T16:49:19.136Z,18.10
2022-11-03T16:51:47.192Z,18.10
2022-11-03T16:54:16.636Z,18.10
2022-11-03T16:56:45.126Z,18.10
2022-11-03T16:59:13.186Z,18.10
2022-11-03T17:01:41.518Z,18.10
2022-11-03T17:04:09.710Z,18.10
2022-11-03T17:06:37.769Z,18.10
2022-11-03T17:09:06.461Z,18.10
2022-11-03T17:11:39.420Z,18.10
2022-11-03T17:14:13.232Z,18.10
2022-11-03T17:16:45.453Z,18.10
2022-11-03T17:19:13.990Z,18.10
2022-11-03T17:21:42.052Z,18.10
2022-11-03T17:24:11.244Z,18.10
2022-11-03T17:26:58.780Z,18.00
2022-11-03T17:29:35.678Z,18.00
2022-11-03T17:32:06.541Z,18.00
2022-11-03T17:34:34.828Z,18.00
2022-11-03T17:37:02.894Z,18.00
2022-11-03T17:39:35.085Z,18.00
2022-11-03T17:42:16.443Z,17.90
2022-11-03T17:44:45.443Z,18.00
2022-11-03T17:47:13.455Z,18.00
2022-11-03T17:49:41.560Z,18.00
2022-11-03T17:52:15.421Z,17.90
2022-11-03T17:54:43.669Z,18.00
2022-11-03T17:57:19.243Z,17.90
2022-11-03T17:59:50.810Z,18.00
2022-11-03T18:02:23.031Z,17.90
2022-11-03T18:04:54.121Z,18.00
2022-11-03T18:07:26.913Z,17.90
2022-11-03T18:09:55.713Z,17.90
2022-11-03T18:12:50.040Z,17.90
2022-11-03T18:15:23.245Z,17.90
2022-11-03T18:17:52.227Z,17.90
2022-11-03T18:20:25.590Z,17.90
2022-11-03T18:22:53.687Z,17.90
2022-11-03T18:25:23.104Z,17.90
2022-11-03T18:27:52.456Z,17.90
2022-11-03T18:30:20.457Z,17.90
2022-11-03T18:32:48.958Z,17.90
2022-11-03T18:35:21.141Z,17.90
2022-11-03T18:37:49.363Z,17.90
2022-11-03T18:40:20.159Z,17.90
2022-11-03T18:42:48.231Z,17.90
2022-11-03T18:45:19.736Z,17.90
2022-11-03T18:47:47.831Z,17.90
2022-11-03T18:50:20.451Z,17.90
2022-11-03T18:52:51.949Z,17.90
2022-11-03T18:55:20.040Z,17.90
2022-11-03T18:57:48.472Z,17.90
2022-11-03T19:00:22.841Z,17.90
2022-11-03T19:02:51.380Z,17.80
2022-11-03T19:05:20.638Z,17.90
2022-11-03T19:07:53.015Z,17.70
2022-11-03T19:10:24.104Z,17.90
2022-11-03T19:12:52.605Z,17.90
2022-11-03T19:15:25.955Z,17.90
2022-11-03T19:17:58.076Z,17.90
2022-11-03T19:20:26.248Z,17.90
2022-11-03T19:22:54.255Z,17.90
2022-11-03T19:25:22.308Z,17.90
2022-11-03T19:27:50.691Z,17.90
2022-11-03T19:30:21.275Z,17.90
2022-11-03T19:32:54.292Z,17.90
2022-11-03T19:35:27.140Z,17.90
2022-11-03T19:38:03.203Z,17.90
2022-11-03T19:40:32.469Z,17.90
2022-11-03T19:42:59.894Z,17.90
2022-11-03T19:45:29.403Z,17.90
2022-11-03T19:50:49.677Z,17.80
2022-11-03T19:53:23.322Z,17.90
2022-11-03T19:55:51.674Z,17.90
2022-11-03T19:58:23.681Z,17.90
2022-11-03T20:00:54.493Z,17.90
2022-11-03T20:03:23.186Z,17.90
2022-11-03T20:05:55.470Z,17.90
2022-11-03T20:08:26.624Z,17.90
2022-11-03T20:10:54.780Z,17.90
2022-11-03T20:13:26.867Z,17.90
2022-11-03T20:16:00.498Z,17.90
2022-11-03T20:18:29.887Z,17.90
2022-11-03T20:20:58.650Z,17.90
2022-11-03T20:23:30.398Z,17.70
2022-11-03T20:26:00.017Z,17.90
2022-11-03T20:28:32.672Z,17.80
2022-11-03T20:31:03.699Z,17.90
2022-11-03T20:33:32.583Z,17.90
2022-11-03T20:36:01.270Z,17.90
2022-11-03T20:38:30.166Z,17.90
2022-11-03T20:41:03.040Z,17.90
2022-11-03T20:43:36.385Z,17.90
2022-11-03T20:46:22.818Z,17.80
2022-11-03T20:48:51.289Z,17.90
2022-11-03T20:51:22.413Z,17.80
2022-11-03T20:53:51.451Z,17.90
2022-11-03T20:56:21.934Z,17.90
2022-11-03T20:58:50.834Z,17.80
2022-11-03T21:01:26.915Z,17.80
2022-11-03T21:04:00.247Z,17.90
2022-11-03T21:06:31.168Z,17.90
2022-11-03T21:09:00.294Z,17.90
2022-11-03T21:11:35.162Z,17.80
2022-11-03T21:14:14.198Z,17.80
2022-11-03T21:17:01.641Z,17.90
2022-11-03T21:19:50.469Z,17.80
2022-11-03T21:25:15.191Z,17.80
2022-11-03T21:27:43.297Z,17.90
2022-11-03T21:30:13.520Z,17.80
2022-11-03T21:32:43.679Z,17.80
2022-11-03T21:35:16.498Z,17.80
2022-11-03T21:37:44.714Z,17.90
2022-11-03T21:40:13.191Z,17.90
2022-11-03T21:42:58.820Z,17.90
2022-11-03T21:45:27.242Z,17.90
2022-11-03T21:48:14.817Z,17.80
2022-11-03T21:50:43.929Z,17.80
2022-11-03T21:53:12.495Z,17.90
2022-11-03T21:55:41.086Z,17.90
2022-11-03T21:58:09.350Z,17.90
2022-11-03T22:00:37.410Z,17.90
2022-11-03T22:03:07.124Z,17.90
2022-11-03T22:05:35.350Z,17.90
2022-11-03T22:08:03.366Z,17.90
2022-11-03T22:10:31.618Z,17.90
2022-11-03T22:12:59.676Z,17.90
2022-11-03T22:15:45.218Z,17.90
2022-11-03T22:18:14.585Z,17.90
2022-11-03T22:21:00.165Z,17.90
2022-11-03T22:23:45.680Z,17.90
2022-11-03T22:26:34.336Z,17.90
2022-11-03T22:29:19.676Z,17.90
2022-11-03T22:31:47.724Z,17.90
2022-11-03T22:34:34.784Z,17.90
2022-11-03T22:37:02.801Z,17.90
2022-11-03T22:39:48.657Z,17.90
2022-11-03T22:42:34.295Z,17.90
2022-11-03T22:45:20.133Z,17.90
2022-11-03T22:47:48.128Z,17.90
2022-11-03T22:50:17.625Z,17.90
2022-11-03T22:52:45.630Z,17.90
2022-11-03T22:55:12.707Z,17.90
2022-11-03T22:57:40.702Z,17.90
2022-11-03T23:00:10.887Z,17.90
2022-11-03T23:02:38.888Z,17.90
2022-11-03T23:05:08.188Z,17.90
2022-11-03T23:07:41.167Z,17.90
2022-11-03T23:10:10.423Z,17.90
2022-11-03T23:12:38.484Z,17.80
2022-11-03T23:15:26.397Z,17.90
2022-11-03T23:18:12.103Z,17.90
2022-11-03T23:20:57.654Z,17.80
2022-11-03T23:23:44.634Z,17.90
2022-11-03T23:26:13.069Z,17.90
2022-11-03T23:28:41.209Z,17.90
2022-11-03T23:31:10.079Z,17.90
2022-11-03T23:33:38.459Z,17.90
2022-11-03T23:36:09.421Z,17.90
2022-11-03T23:38:40.879Z,17.90
2022-11-03T23:41:11.825Z,17.90
2022-11-03T23:43:40.342Z,18.00
2022-11-03T23:46:29.048Z,17.90
2022-11-03T23:48:58.650Z,17.90
2022-11-03T23:51:29.196Z,17.90
2022-11-03T23:54:00.544Z,17.90
2022-11-03T23:56:48.984Z,17.90
2022-11-03T23:59:18.040Z,17.90
